Terminal Aerodrome Forecast
Issued by NWS Jacksonville, FL

Home | Current Version | Previous Version | Text Only | Print | Product List | Glossary On
Versions: 1 2 3 4 5 6 7 8 9 10 11 12
000
FTUS42 KJAX 220500
TAFSSI
TAF
KSSI 220520Z 2206/2306 04010KT P6SM FEW035 SCT100
     FM221100 03011KT P6SM SCT025 BKN035 BKN080
     FM221300 04013G18KT P6SM VCSH BKN025 OVC070
     FM221600 05015G24KT P6SM VCSH BKN020 OVC070
     FM230200 06012KT 5SM -RA BR OVC015=

USA.gov is the U.S. government's official web portal to all federal, state and local government web resources and services.